createdAt,value
2019-02-20T00:01:35.982Z,-1.10
2019-02-20T00:04:04.420Z,-1.00
2019-02-20T00:06:32.863Z,-1.00
2019-02-20T00:09:01.293Z,-0.90
2019-02-20T00:11:29.756Z,-0.90
2019-02-20T00:13:58.184Z,-0.90
2019-02-20T00:16:26.624Z,-0.90
2019-02-20T00:18:55.071Z,-1.00
2019-02-20T00:21:23.525Z,-1.10
2019-02-20T00:23:51.973Z,-1.20
2019-02-20T00:26:20.431Z,-1.30
2019-02-20T00:28:48.854Z,-1.30
2019-02-20T00:31:17.313Z,-1.20
2019-02-20T00:33:45.740Z,-1.30
2019-02-20T00:36:14.191Z,-1.30
2019-02-20T00:38:42.619Z,-1.20
2019-02-20T00:41:11.144Z,-1.30
2019-02-20T00:43:41.223Z,-1.40
2019-02-20T00:46:14.017Z,-1.30
2019-02-20T00:48:44.099Z,-1.20
2019-02-20T00:51:29.257Z,-1.30
2019-02-20T00:54:02.147Z,-1.20
2019-02-20T00:56:30.694Z,-1.20
2019-02-20T00:58:59.135Z,-1.30
2019-02-20T01:01:27.691Z,-1.30
2019-02-20T01:03:56.137Z,-1.60
2019-02-20T01:06:24.572Z,-1.50
2019-02-20T01:08:53.016Z,-1.40
2019-02-20T01:11:21.528Z,-1.40
2019-02-20T01:13:50.019Z,-1.50
2019-02-20T01:16:18.460Z,-1.70
2019-02-20T01:18:46.964Z,-1.60
2019-02-20T01:21:15.403Z,-1.60
2019-02-20T01:23:43.856Z,-1.60
2019-02-20T01:26:12.370Z,-1.60
2019-02-20T01:28:40.885Z,-1.60
2019-02-20T01:31:09.323Z,-1.50
2019-02-20T01:33:37.780Z,-1.60
2019-02-20T01:36:06.212Z,-1.60
2019-02-20T01:38:34.665Z,-1.60
2019-02-20T01:41:03.119Z,-1.70
2019-02-20T01:43:31.573Z,-1.70
2019-02-20T01:46:00.007Z,-2.10
2019-02-20T01:48:28.456Z,-2.20
2019-02-20T01:50:56.897Z,-2.20
2019-02-20T01:53:25.344Z,-2.00
2019-02-20T01:55:53.779Z,-2.00
2019-02-20T01:58:22.224Z,-2.00
2019-02-20T02:00:51.602Z,-2.00
2019-02-20T02:03:20.050Z,-2.00
2019-02-20T02:05:48.480Z,-1.90
2019-02-20T02:08:16.923Z,-1.90
2019-02-20T02:10:45.385Z,-1.90
2019-02-20T02:13:13.823Z,-2.00
2019-02-20T02:15:42.262Z,-2.10
2019-02-20T02:18:10.707Z,-2.30
2019-02-20T02:20:39.155Z,-2.10
2019-02-20T02:23:07.591Z,-2.20
2019-02-20T02:25:36.043Z,-2.10
2019-02-20T02:28:04.492Z,-2.10
2019-02-20T02:30:32.928Z,-2.10
2019-02-20T02:33:01.440Z,-2.30
2019-02-20T02:35:29.908Z,-2.30
2019-02-20T02:37:58.348Z,-2.20
2019-02-20T02:40:26.791Z,-2.10
2019-02-20T02:42:55.235Z,-2.10
2019-02-20T02:45:23.714Z,-2.00
2019-02-20T02:47:52.247Z,-2.10
2019-02-20T02:50:20.687Z,-2.20
2019-02-20T02:52:49.123Z,-2.40
2019-02-20T02:55:17.563Z,-2.30
2019-02-20T02:57:46.019Z,-2.30
2019-02-20T03:00:14.463Z,-2.30
2019-02-20T03:02:42.928Z,-2.20
2019-02-20T03:05:11.482Z,-2.30
2019-02-20T03:07:39.995Z,-2.30
2019-02-20T03:10:08.691Z,-2.50
2019-02-20T03:12:37.182Z,-2.40
2019-02-20T03:15:08.201Z,-2.30
2019-02-20T03:17:36.644Z,-2.20
2019-02-20T03:20:07.718Z,-2.30
2019-02-20T03:22:36.165Z,-2.50
2019-02-20T03:25:05.333Z,-2.60
2019-02-20T03:27:33.791Z,-2.50
2019-02-20T03:30:02.229Z,-2.40
2019-02-20T03:32:30.681Z,-2.50
2019-02-20T03:34:59.123Z,-2.50
2019-02-20T03:37:27.590Z,-2.40
2019-02-20T03:39:57.016Z,-2.40
2019-02-20T03:42:25.480Z,-2.40
2019-02-20T03:44:53.909Z,-2.60
2019-02-20T03:47:22.357Z,-2.70
2019-02-20T03:49:50.801Z,-2.60
2019-02-20T03:52:19.269Z,-2.70
2019-02-20T03:54:47.693Z,-2.60
2019-02-20T03:57:16.146Z,-2.50
2019-02-20T03:59:44.889Z,-2.70
2019-02-20T04:02:13.308Z,-2.60
2019-02-20T04:04:41.749Z,-2.60
2019-02-20T04:07:10.211Z,-2.60
2019-02-20T04:09:38.649Z,-2.70
2019-02-20T04:12:07.088Z,-2.80
2019-02-20T04:14:35.529Z,-2.80
2019-02-20T04:17:04.845Z,-2.80
2019-02-20T04:19:33.296Z,-3.00
2019-02-20T04:22:01.728Z,-3.00
2019-02-20T04:24:30.163Z,-2.80
2019-02-20T04:26:58.596Z,-2.70
2019-02-20T04:29:27.061Z,-2.80
2019-02-20T04:31:55.553Z,-2.60
2019-02-20T04:34:24.010Z,-2.70
2019-02-20T04:36:52.453Z,-2.90
2019-02-20T04:39:20.965Z,-2.80
2019-02-20T04:41:49.400Z,-2.90
2019-02-20T04:44:17.842Z,-2.80
2019-02-20T04:46:46.290Z,-2.70
2019-02-20T04:49:14.805Z,-2.70
2019-02-20T04:51:43.245Z,-2.60
2019-02-20T04:54:13.699Z,-2.70
2019-02-20T04:56:41.864Z,-2.60
2019-02-20T04:59:10.330Z,-2.80
2019-02-20T05:01:38.758Z,-2.70
2019-02-20T05:04:07.210Z,-2.80
2019-02-20T05:06:35.654Z,-2.80
2019-02-20T05:09:05.646Z,-2.90
2019-02-20T05:11:34.134Z,-2.90
2019-02-20T05:14:02.596Z,-3.00
2019-02-20T05:16:31.024Z,-3.00
2019-02-20T05:18:59.526Z,-3.00
2019-02-20T05:21:27.956Z,-3.00
2019-02-20T05:23:56.397Z,-2.90
2019-02-20T05:26:24.829Z,-3.00
2019-02-20T05:28:53.267Z,-2.90
2019-02-20T05:31:21.693Z,-2.90
2019-02-20T05:33:50.189Z,-2.80
2019-02-20T05:36:18.630Z,-2.90
2019-02-20T05:38:47.102Z,-2.90
2019-02-20T05:41:15.514Z,-2.80
2019-02-20T05:43:43.959Z,-2.90
2019-02-20T05:46:12.399Z,-2.90
2019-02-20T05:48:40.841Z,-2.80
2019-02-20T05:51:09.301Z,-2.80
2019-02-20T05:53:37.733Z,-2.80
2019-02-20T05:56:06.183Z,-2.90
2019-02-20T05:58:34.692Z,-3.00
2019-02-20T06:01:03.132Z,-3.00
2019-02-20T06:03:31.552Z,-3.00
2019-02-20T06:05:59.997Z,-3.00
2019-02-20T06:08:28.442Z,-3.10
2019-02-20T06:10:56.883Z,-3.00
2019-02-20T06:13:25.321Z,-3.00
2019-02-20T06:15:53.781Z,-2.80
2019-02-20T06:18:22.216Z,-2.80
2019-02-20T06:20:50.670Z,-2.90
2019-02-20T06:23:19.096Z,-2.80
2019-02-20T06:25:47.545Z,-2.80
2019-02-20T06:28:15.980Z,-2.80
2019-02-20T06:30:44.452Z,-2.80
2019-02-20T06:33:12.884Z,-2.70
2019-02-20T06:35:41.343Z,-2.70
2019-02-20T06:38:10.983Z,-2.70
2019-02-20T06:40:39.998Z,-2.80
2019-02-20T06:43:08.434Z,-2.80
2019-02-20T06:45:36.875Z,-2.70
2019-02-20T06:48:05.320Z,-2.70
2019-02-20T06:50:33.747Z,-2.60
2019-02-20T06:53:02.212Z,-2.50
2019-02-20T06:55:30.647Z,-2.60
2019-02-20T06:57:59.094Z,-2.60
2019-02-20T07:00:27.515Z,-2.40
2019-02-20T07:02:55.959Z,-2.50
2019-02-20T07:05:32.783Z,-2.60
2019-02-20T07:08:24.085Z,-2.50
2019-02-20T07:11:10.663Z,-2.50
2019-02-20T07:13:58.878Z,-2.40
2019-02-20T07:16:55.917Z,-2.60
2019-02-20T07:19:42.449Z,-2.70
2019-02-20T07:22:25.683Z,-2.50
2019-02-20T07:25:03.751Z,-2.20
2019-02-20T07:27:38.284Z,-1.90
2019-02-20T07:30:08.458Z,-1.70
2019-02-20T07:32:36.907Z,-1.60
2019-02-20T07:35:07.092Z,-1.30
2019-02-20T07:37:35.535Z,-1.10
2019-02-20T07:40:05.608Z,-0.60
2019-02-20T07:42:34.056Z,-0.40
2019-02-20T07:45:02.496Z,-0.10
2019-02-20T07:47:30.944Z,0.10
2019-02-20T07:49:59.370Z,0.10
2019-02-20T07:52:27.824Z,0.10
2019-02-20T07:54:56.261Z,0.10
2019-02-20T07:57:24.783Z,0.20
2019-02-20T07:59:53.216Z,0.20
2019-02-20T08:02:21.734Z,0.20
2019-02-20T08:04:50.162Z,0.30
2019-02-20T08:07:18.587Z,0.40
2019-02-20T08:09:47.094Z,0.50
2019-02-20T08:12:15.527Z,0.60
2019-02-20T08:14:43.979Z,0.50
2019-02-20T08:17:12.430Z,0.60
2019-02-20T08:19:41.840Z,0.70
2019-02-20T08:22:10.278Z,0.90
2019-02-20T08:24:38.714Z,1.10
2019-02-20T08:27:07.153Z,1.40
2019-02-20T08:29:35.628Z,1.60
2019-02-20T08:32:04.134Z,1.70
2019-02-20T08:34:32.554Z,1.90
2019-02-20T08:37:00.992Z,2.00
2019-02-20T08:39:29.426Z,2.00
2019-02-20T08:41:57.858Z,2.10
2019-02-20T08:44:26.578Z,2.20
2019-02-20T08:46:55.011Z,2.10
2019-02-20T08:49:24.403Z,2.20
2019-02-20T08:51:52.826Z,2.30
2019-02-20T08:54:21.293Z,2.30
2019-02-20T08:56:49.730Z,2.40
2019-02-20T08:59:18.188Z,2.60
2019-02-20T09:01:46.609Z,2.70
2019-02-20T09:04:15.077Z,2.70
2019-02-20T09:06:43.520Z,2.90
2019-02-20T09:09:11.951Z,3.10
2019-02-20T09:11:40.431Z,3.00
2019-02-20T09:14:08.887Z,3.00
2019-02-20T09:16:37.336Z,3.10
2019-02-20T09:19:05.789Z,3.20
2019-02-20T09:21:34.228Z,3.20
2019-02-20T09:24:02.667Z,3.40
2019-02-20T09:26:31.100Z,3.60
2019-02-20T09:28:59.527Z,3.70
2019-02-20T09:31:27.965Z,3.80
2019-02-20T09:33:56.747Z,4.00
2019-02-20T09:36:25.320Z,4.20
2019-02-20T09:38:53.754Z,4.30
2019-02-20T09:41:22.234Z,4.40
2019-02-20T09:43:50.664Z,4.30
2019-02-20T09:46:19.121Z,4.50
2019-02-20T09:48:48.599Z,4.70
2019-02-20T09:51:17.048Z,4.70
2019-02-20T09:53:45.465Z,4.70
2019-02-20T09:56:16.114Z,4.80
2019-02-20T09:58:44.065Z,4.90
2019-02-20T10:01:12.503Z,5.30
2019-02-20T10:03:40.922Z,5.40
2019-02-20T10:06:09.367Z,5.70
2019-02-20T10:08:37.812Z,6.00
2019-02-20T10:11:06.250Z,6.10
2019-02-20T10:13:34.668Z,6.30
2019-02-20T10:16:03.108Z,6.60
2019-02-20T10:18:31.556Z,6.90
2019-02-20T10:20:59.984Z,7.00
2019-02-20T10:23:29.406Z,7.10
2019-02-20T10:26:01.000Z,7.40
2019-02-20T10:28:28.069Z,7.50
2019-02-20T10:30:56.552Z,7.60
2019-02-20T10:33:24.974Z,7.70
2019-02-20T10:35:53.395Z,8.00
2019-02-20T10:38:21.848Z,8.10
2019-02-20T10:40:50.288Z,8.20
2019-02-20T10:43:18.731Z,7.90
2019-02-20T10:45:48.111Z,8.10
2019-02-20T10:48:16.542Z,8.40
2019-02-20T10:50:44.980Z,8.70
2019-02-20T10:53:13.425Z,9.00
2019-02-20T10:55:41.909Z,9.10
2019-02-20T10:58:10.343Z,9.30
2019-02-20T11:00:38.911Z,9.50
2019-02-20T11:03:07.342Z,9.60
2019-02-20T11:05:35.835Z,9.30
2019-02-20T11:08:04.274Z,9.40
2019-02-20T11:10:32.735Z,9.60
2019-02-20T11:13:01.159Z,9.60
2019-02-20T11:15:29.642Z,9.90
2019-02-20T11:17:58.093Z,9.90
2019-02-20T11:20:26.522Z,10.20
2019-02-20T11:22:54.964Z,10.20
2019-02-20T11:25:23.393Z,9.90
2019-02-20T11:27:51.848Z,10.30
2019-02-20T11:30:22.986Z,10.50
2019-02-20T11:32:52.294Z,10.60
2019-02-20T11:35:20.803Z,10.80
2019-02-20T11:37:49.239Z,11.10
2019-02-20T11:40:17.783Z,11.20
2019-02-20T11:42:46.200Z,10.80
2019-02-20T11:45:16.281Z,10.50
2019-02-20T11:47:44.711Z,10.60
2019-02-20T11:50:13.279Z,10.90
2019-02-20T11:52:42.271Z,10.90
2019-02-20T11:55:13.058Z,11.00
2019-02-20T11:57:41.562Z,10.90
2019-02-20T12:00:12.734Z,10.50
2019-02-20T12:02:42.241Z,10.50
2019-02-20T12:05:12.003Z,10.70
2019-02-20T12:07:40.473Z,11.00
2019-02-20T12:10:14.430Z,11.10
2019-02-20T12:12:42.927Z,11.10
2019-02-20T12:15:11.543Z,11.10
2019-02-20T12:17:39.967Z,11.30
2019-02-20T12:20:09.273Z,11.30
2019-02-20T12:22:37.711Z,11.30
2019-02-20T12:25:10.358Z,11.20
2019-02-20T12:27:38.796Z,11.30
2019-02-20T12:30:09.471Z,11.30
2019-02-20T12:32:37.971Z,11.30
2019-02-20T12:35:08.159Z,11.40
2019-02-20T12:37:36.578Z,11.50
2019-02-20T12:40:07.363Z,11.70
2019-02-20T12:42:35.809Z,11.90
2019-02-20T12:45:05.171Z,12.00
2019-02-20T12:47:33.587Z,12.20
2019-02-20T12:50:02.135Z,12.10
2019-02-20T12:52:30.601Z,12.30
2019-02-20T12:54:59.046Z,12.00
2019-02-20T12:57:28.411Z,12.30
2019-02-20T12:59:56.852Z,12.10
2019-02-20T13:02:25.279Z,12.10
2019-02-20T13:04:53.715Z,11.80
2019-02-20T13:07:22.219Z,11.80
2019-02-20T13:09:50.671Z,12.00
2019-02-20T13:12:19.099Z,11.80
2019-02-20T13:14:47.615Z,11.30
2019-02-20T13:17:16.041Z,11.50
2019-02-20T13:19:44.503Z,11.60
2019-02-20T13:22:12.990Z,11.60
2019-02-20T13:24:41.413Z,11.70
2019-02-20T13:27:10.409Z,12.00
2019-02-20T13:29:38.957Z,12.20
2019-02-20T13:32:07.412Z,12.40
2019-02-20T13:34:35.856Z,12.10
2019-02-20T13:37:04.301Z,12.20
2019-02-20T13:39:32.797Z,12.30
2019-02-20T13:42:01.241Z,12.20
2019-02-20T13:44:29.664Z,12.10
2019-02-20T13:46:58.296Z,12.00
2019-02-20T13:49:26.801Z,11.90
2019-02-20T13:51:55.340Z,12.20
2019-02-20T13:54:23.853Z,12.30
2019-02-20T13:56:52.388Z,12.30
2019-02-20T13:59:20.873Z,12.40
2019-02-20T14:01:49.425Z,12.50
2019-02-20T14:04:17.917Z,12.60
2019-02-20T14:06:46.489Z,12.70
2019-02-20T14:09:15.288Z,12.70
2019-02-20T14:11:44.011Z,12.70
2019-02-20T14:14:12.492Z,13.00
2019-02-20T14:16:41.003Z,13.00
2019-02-20T14:19:09.804Z,13.10
2019-02-20T14:21:38.252Z,13.00
2019-02-20T14:24:06.769Z,12.70
2019-02-20T14:26:35.294Z,12.70
2019-02-20T14:29:03.791Z,13.00
2019-02-20T14:31:32.241Z,13.00
2019-02-20T14:34:00.663Z,13.00
2019-02-20T14:36:29.491Z,12.90
2019-02-20T14:38:57.915Z,12.70
2019-02-20T14:41:26.351Z,12.50
2019-02-20T14:43:54.839Z,12.30
2019-02-20T14:46:23.284Z,12.30
2019-02-20T14:48:51.707Z,12.30
2019-02-20T14:51:20.138Z,12.30
2019-02-20T14:53:48.853Z,12.40
2019-02-20T14:56:17.297Z,12.30
2019-02-20T14:58:45.735Z,12.20
2019-02-20T15:01:14.175Z,12.30
2019-02-20T15:03:42.611Z,12.30
2019-02-20T15:06:11.053Z,12.30
2019-02-20T15:08:39.615Z,12.20
2019-02-20T15:11:08.068Z,12.30
2019-02-20T15:13:36.562Z,12.40
2019-02-20T15:16:05.147Z,12.40
2019-02-20T15:18:33.668Z,12.30
2019-02-20T15:21:02.721Z,12.30
2019-02-20T15:23:31.379Z,12.20
2019-02-20T15:26:00.088Z,12.10
2019-02-20T15:28:28.629Z,12.10
2019-02-20T15:30:57.079Z,12.10
2019-02-20T15:33:25.527Z,12.20
2019-02-20T15:35:53.957Z,12.30
2019-02-20T15:38:22.479Z,12.30
2019-02-20T15:40:50.904Z,12.30
2019-02-20T15:43:19.729Z,12.30
2019-02-20T15:45:48.220Z,12.30
2019-02-20T15:48:23.003Z,12.30
2019-02-20T15:50:46.827Z,12.30
2019-02-20T15:53:15.283Z,12.30
2019-02-20T15:55:44.260Z,12.30
2019-02-20T15:58:12.745Z,12.20
2019-02-20T16:00:41.482Z,12.20
2019-02-20T16:03:10.075Z,12.20
2019-02-20T16:05:38.522Z,11.90
2019-02-20T16:08:07.381Z,11.70
2019-02-20T16:10:35.934Z,11.90
2019-02-20T16:13:04.404Z,11.80
2019-02-20T16:15:32.842Z,11.90
2019-02-20T16:18:01.267Z,11.80
2019-02-20T16:20:29.717Z,11.60
2019-02-20T16:22:58.224Z,11.60
2019-02-20T16:25:26.667Z,11.50
2019-02-20T16:27:55.098Z,11.50
2019-02-20T16:30:23.539Z,11.50
2019-02-20T16:32:53.448Z,11.30
2019-02-20T16:35:21.895Z,11.20
2019-02-20T16:37:50.427Z,10.70
2019-02-20T16:40:19.014Z,10.70
2019-02-20T16:42:47.448Z,10.50
2019-02-20T16:45:23.640Z,10.60
2019-02-20T16:47:53.371Z,10.60
2019-02-20T16:50:21.941Z,10.50
2019-02-20T16:52:50.410Z,10.50
2019-02-20T16:55:19.719Z,10.30
2019-02-20T16:57:56.382Z,10.10
2019-02-20T17:00:21.180Z,10.30
2019-02-20T17:02:50.175Z,10.30
2019-02-20T17:05:18.760Z,10.10
2019-02-20T17:07:47.290Z,9.90
2019-02-20T17:10:15.946Z,9.50
2019-02-20T17:12:44.571Z,9.40
2019-02-20T17:15:14.899Z,9.20
2019-02-20T17:17:43.484Z,9.10
2019-02-20T17:20:14.803Z,9.20
2019-02-20T17:22:43.306Z,9.10
2019-02-20T17:25:13.133Z,9.00
2019-02-20T17:27:41.747Z,8.90
2019-02-20T17:30:19.850Z,8.90
2019-02-20T17:32:48.885Z,8.90
2019-02-20T17:35:17.433Z,8.90
2019-02-20T17:37:45.933Z,8.90
2019-02-20T17:40:15.226Z,8.80
2019-02-20T17:42:44.822Z,8.60
2019-02-20T17:45:17.901Z,8.40
2019-02-20T17:47:48.237Z,8.40
2019-02-20T17:50:21.609Z,8.40
2019-02-20T17:52:50.098Z,8.40
2019-02-20T17:55:18.536Z,8.30
2019-02-20T17:57:47.013Z,8.30
2019-02-20T18:00:18.635Z,7.90
2019-02-20T18:02:47.217Z,7.70
2019-02-20T18:05:15.668Z,7.60
2019-02-20T18:07:49.779Z,7.40
2019-02-20T18:10:14.424Z,7.50
2019-02-20T18:12:42.927Z,7.30
2019-02-20T18:15:12.996Z,7.30
2019-02-20T18:17:41.569Z,7.00
2019-02-20T18:20:11.232Z,6.80
2019-02-20T18:22:39.661Z,6.80
2019-02-20T18:25:10.007Z,6.80
2019-02-20T18:27:38.628Z,6.90
2019-02-20T18:30:10.414Z,6.90
2019-02-20T18:32:38.901Z,6.70
2019-02-20T18:35:09.887Z,6.50
2019-02-20T18:37:38.444Z,6.20
2019-02-20T18:40:09.895Z,6.20
2019-02-20T18:42:38.417Z,6.10
2019-02-20T18:45:09.702Z,6.00
2019-02-20T18:47:38.128Z,6.00
2019-02-20T18:50:09.148Z,6.00
2019-02-20T18:52:37.578Z,6.00
2019-02-20T18:55:08.798Z,5.80
2019-02-20T18:57:37.277Z,5.50
2019-02-20T19:00:09.431Z,5.50
2019-02-20T19:02:37.895Z,5.50
2019-02-20T19:05:08.069Z,5.60
2019-02-20T19:07:36.516Z,5.40
2019-02-20T19:10:08.029Z,5.60
2019-02-20T19:12:51.173Z,5.40
2019-02-20T19:15:26.553Z,5.00
2019-02-20T19:18:17.682Z,5.00
2019-02-20T19:20:51.875Z,5.00
2019-02-20T19:23:56.730Z,5.10
2019-02-20T19:26:40.014Z,5.00
2019-02-20T19:29:20.727Z,4.80
2019-02-20T19:32:08.682Z,4.80
2019-02-20T19:34:42.880Z,4.80
2019-02-20T19:37:29.206Z,4.80
2019-02-20T19:40:03.663Z,4.60
2019-02-20T19:42:52.976Z,4.20
2019-02-20T19:45:24.549Z,4.10
2019-02-20T19:48:11.979Z,4.10
2019-02-20T19:50:52.267Z,4.10
2019-02-20T19:53:38.839Z,4.10
2019-02-20T19:56:31.322Z,4.20
2019-02-20T19:59:08.578Z,4.10
2019-02-20T20:02:08.014Z,4.00
2019-02-20T20:04:49.283Z,4.10
2019-02-20T20:07:35.915Z,4.10
2019-02-20T20:10:25.824Z,4.00
2019-02-20T20:13:09.210Z,3.80
2019-02-20T20:15:46.218Z,3.50
2019-02-20T20:18:34.159Z,3.40
2019-02-20T20:21:08.570Z,3.10
2019-02-20T20:23:59.957Z,2.40
2019-02-20T20:26:37.667Z,2.50
2019-02-20T20:29:12.075Z,2.90
2019-02-20T20:31:46.325Z,3.30
2019-02-20T20:34:29.346Z,3.40
2019-02-20T20:37:03.882Z,3.40
2019-02-20T20:39:56.441Z,3.50
2019-02-20T20:42:45.780Z,3.40
2019-02-20T20:45:23.381Z,3.00
2019-02-20T20:47:54.925Z,3.10
2019-02-20T20:50:38.009Z,3.10
2019-02-20T20:53:21.397Z,3.00
2019-02-20T20:56:10.700Z,3.00
2019-02-20T20:58:48.078Z,3.00
2019-02-20T21:01:36.555Z,2.80
2019-02-20T21:04:07.627Z,2.70
2019-02-20T21:06:41.843Z,2.70
2019-02-20T21:09:16.389Z,2.40
2019-02-20T21:11:51.097Z,2.30
2019-02-20T21:14:31.729Z,2.30
2019-02-20T21:17:21.282Z,2.40
2019-02-20T21:20:33.194Z,2.40
2019-02-20T21:23:40.307Z,2.30
2019-02-20T21:26:47.396Z,2.20
2019-02-20T21:29:55.913Z,2.10
2019-02-20T21:33:04.434Z,2.00
2019-02-20T21:36:11.507Z,1.80
2019-02-20T21:41:51.151Z,1.90
2019-02-20T21:44:31.910Z,2.00
2019-02-20T21:47:40.413Z,2.00
2019-02-20T21:50:48.939Z,1.90
2019-02-20T21:53:56.053Z,1.70
2019-02-20T21:57:03.129Z,1.50
2019-02-20T21:59:42.885Z,1.60
2019-02-20T22:02:22.208Z,1.70
2019-02-20T22:05:01.875Z,1.70
2019-02-20T22:08:05.006Z,1.70
2019-02-20T22:11:05.121Z,1.80
2019-02-20T22:13:57.426Z,1.30
2019-02-20T22:16:50.275Z,1.40
2019-02-20T22:19:39.887Z,1.40
2019-02-20T22:22:43.290Z,1.40
2019-02-20T22:25:26.514Z,1.40
2019-02-20T22:28:14.749Z,1.30
2019-02-20T22:31:10.425Z,1.30
2019-02-20T22:33:53.572Z,1.40
2019-02-20T22:36:30.661Z,1.30
2019-02-20T22:39:13.889Z,1.20
2019-02-20T22:42:01.857Z,1.10
2019-02-20T22:44:55.962Z,1.20
2019-02-20T22:47:45.364Z,1.10
2019-02-20T22:50:28.762Z,1.20
2019-02-20T22:53:03.101Z,1.20
2019-02-20T22:55:34.597Z,1.10
2019-02-20T22:58:09.929Z,1.10
2019-02-20T23:01:00.694Z,0.90
2019-02-20T23:03:32.189Z,0.80
2019-02-20T23:06:15.604Z,0.90
2019-02-20T23:08:56.048Z,1.00
2019-02-20T23:11:54.870Z,0.90
2019-02-20T23:14:37.881Z,0.90
2019-02-20T23:17:06.304Z,0.70
2019-02-20T23:19:34.834Z,0.50
2019-02-20T23:22:03.244Z,-0.10
2019-02-20T23:24:31.674Z,-0.40
2019-02-20T23:27:00.098Z,0.00
2019-02-20T23:29:28.525Z,0.00
2019-02-20T23:31:56.958Z,0.20
2019-02-20T23:34:25.369Z,0.30
2019-02-20T23:36:53.794Z,0.20
2019-02-20T23:39:22.196Z,0.30
2019-02-20T23:41:50.614Z,0.30
2019-02-20T23:44:19.020Z,0.20
2019-02-20T23:46:47.456Z,0.30
2019-02-20T23:49:15.887Z,0.20
2019-02-20T23:51:44.321Z,0.30
2019-02-20T23:54:12.733Z,0.40
2019-02-20T23:56:41.146Z,0.40
2019-02-20T23:59:09.653Z,0.40
